GMAD/AGA METAR and TAF weather

Enter ICAO airport designator
Station Type Date Time Source
GMAD METAR 2019/05/23 18:00 UTC NOAA

GMAD 231800Z 31005KT CAVOK 25/15 Q1012 NOSIG


Station Type Date Time Source
GMAD Decoded METAR 2019/05/23 18:00 UTC NOAA

Agadir Al Massira, Morocco (GMAD) 30-20N 009-24W 74M
May 23, 2019 - 02:00 PM EDT / 2019.05.23 1800 UTC
Wind: from the NW (310 degrees) at 6 MPH (5 KT):0
Visibility: greater than 7 mile(s):0
Temperature: 77 F (25 C)
Dew Point: 59 F (15 C)
Relative Humidity: 53%
Pressure (altimeter): 29.88 in. Hg (1012 hPa)
ob: GMAD 231800Z 31005KT CAVOK 25/15 Q1012 NOSIG
cycle: 18

Station Type Date Time Source
GMAD TAF 2019/05/23 18:42 UTC NOAA

TAF GMAD 231700Z 2318/2424 20008KT 8000 NSC
BECMG 2404/2408 SCT010 SCT016

Example: see airport list